createdAt,value
2023-10-30T00:00:53.320Z,98938.38
2023-10-30T00:03:40.250Z,98937.66
2023-10-30T00:06:26.035Z,98965.44
2023-10-30T00:09:12.326Z,98955.84
2023-10-30T00:11:58.791Z,98957.44
2023-10-30T00:14:44.864Z,98967.03
2023-10-30T00:17:34.041Z,98962.69
2023-10-30T00:20:20.188Z,98950.63
2023-10-30T00:23:06.235Z,98965.88
2023-10-30T00:25:53.034Z,98965.44
2023-10-30T00:28:38.902Z,98962.00
2023-10-30T00:31:25.240Z,98955.22
2023-10-30T00:34:13.219Z,98936.72
2023-10-30T00:36:59.108Z,98948.16
2023-10-30T00:39:44.894Z,98940.16
2023-10-30T00:42:30.798Z,98928.41
2023-10-30T00:45:18.341Z,98969.53
2023-10-30T00:48:04.505Z,98964.50
2023-10-30T00:50:50.362Z,98967.69
2023-10-30T00:53:36.275Z,98961.44
2023-10-30T00:56:22.091Z,98972.53
2023-10-30T00:59:08.408Z,98966.66
2023-10-30T01:01:54.842Z,98963.28
2023-10-30T01:04:41.170Z,98953.94
2023-10-30T01:07:27.368Z,98971.88
2023-10-30T01:10:13.443Z,98968.13
2023-10-30T01:12:59.139Z,98977.19
2023-10-30T01:15:45.041Z,98972.50
2023-10-30T01:18:31.407Z,98986.19
2023-10-30T01:21:18.615Z,98987.03
2023-10-30T01:24:06.525Z,98989.94
2023-10-30T01:26:52.885Z,98979.84
2023-10-30T01:29:38.455Z,99007.50
2023-10-30T01:32:24.334Z,99008.66
2023-10-30T01:35:10.056Z,98972.09
2023-10-30T01:37:56.248Z,98981.69
2023-10-30T01:40:49.361Z,98981.31
2023-10-30T01:43:35.478Z,98988.41
2023-10-30T01:46:21.266Z,98998.16
2023-10-30T01:49:07.026Z,99011.63
2023-10-30T01:51:52.523Z,99001.00
2023-10-30T01:54:39.132Z,99011.41
2023-10-30T01:57:28.475Z,98984.44
2023-10-30T02:00:16.059Z,98992.56
2023-10-30T02:03:01.926Z,99001.22
2023-10-30T02:05:48.163Z,98999.31
2023-10-30T02:08:33.662Z,99032.66
2023-10-30T02:11:19.712Z,98996.31
2023-10-30T02:14:05.808Z,99023.41
2023-10-30T02:16:52.426Z,99030.03
2023-10-30T02:19:38.283Z,99035.84
2023-10-30T02:22:23.956Z,99038.56
2023-10-30T02:25:10.061Z,99040.06
2023-10-30T02:27:55.994Z,99028.84
2023-10-30T02:30:41.726Z,99042.09
2023-10-30T02:33:27.808Z,99027.53
2023-10-30T02:36:13.802Z,99028.47
2023-10-30T02:39:00.196Z,99034.06
2023-10-30T02:41:45.812Z,99029.38
2023-10-30T02:44:31.948Z,99039.44
2023-10-30T02:47:17.939Z,99049.59
2023-10-30T02:50:04.724Z,99048.44
2023-10-30T02:52:51.569Z,99041.81
2023-10-30T02:55:37.924Z,99044.81
2023-10-30T02:58:23.659Z,99048.91
2023-10-30T03:01:09.513Z,99054.66
2023-10-30T03:03:55.297Z,99055.47
2023-10-30T03:06:41.940Z,99053.63
2023-10-30T03:09:29.698Z,99058.41
2023-10-30T03:12:15.485Z,99050.88
2023-10-30T03:15:01.113Z,99052.78
2023-10-30T03:17:47.551Z,99058.75
2023-10-30T03:20:33.512Z,99054.66
2023-10-30T03:23:21.368Z,99074.22
2023-10-30T03:26:07.705Z,99081.66
2023-10-30T03:28:53.502Z,99079.94
2023-10-30T03:31:39.117Z,99085.81
2023-10-30T03:34:25.271Z,99071.03
2023-10-30T03:37:12.435Z,99081.09
2023-10-30T03:39:59.712Z,99075.97
2023-10-30T03:42:46.388Z,99087.50
2023-10-30T03:45:32.239Z,99081.25
2023-10-30T03:48:18.242Z,99110.16
2023-10-30T03:51:05.258Z,99101.47
2023-10-30T03:53:50.654Z,99097.13
2023-10-30T03:56:36.842Z,99098.03
2023-10-30T03:59:22.721Z,99085.25
2023-10-30T04:02:09.000Z,99097.75
2023-10-30T04:04:55.715Z,99128.94
2023-10-30T04:07:41.804Z,99100.47
2023-10-30T04:10:27.525Z,99104.25
2023-10-30T04:13:13.394Z,99111.25
2023-10-30T04:15:59.454Z,99117.06
2023-10-30T04:18:45.753Z,99137.66
2023-10-30T04:21:31.986Z,99114.13
2023-10-30T04:24:18.151Z,99113.44
2023-10-30T04:27:04.504Z,99112.41
2023-10-30T04:29:50.472Z,99102.56
2023-10-30T04:32:36.492Z,99093.09
2023-10-30T04:35:22.612Z,99117.19
2023-10-30T04:38:08.291Z,99129.56
2023-10-30T04:40:54.655Z,99133.34
2023-10-30T04:43:40.349Z,99124.66
2023-10-30T04:46:26.532Z,99129.69
2023-10-30T04:49:12.363Z,99123.25
2023-10-30T04:51:58.218Z,99132.63
2023-10-30T04:54:43.768Z,99139.25
2023-10-30T04:57:29.799Z,99132.84
2023-10-30T05:00:16.088Z,99138.47
2023-10-30T05:03:01.905Z,99124.75
2023-10-30T05:05:48.533Z,99149.31
2023-10-30T05:08:36.617Z,99139.94
2023-10-30T05:11:22.237Z,99126.34
2023-10-30T05:14:08.625Z,99122.09
2023-10-30T05:16:55.130Z,99137.88
2023-10-30T05:19:41.273Z,99135.34
2023-10-30T05:22:28.780Z,99136.03
2023-10-30T05:25:14.776Z,99103.09
2023-10-30T05:28:01.408Z,99130.09
2023-10-30T05:30:49.472Z,99152.47
2023-10-30T05:33:35.685Z,99142.19
2023-10-30T05:36:22.037Z,99134.19
2023-10-30T05:39:07.863Z,99135.16
2023-10-30T05:41:53.597Z,99160.22
2023-10-30T05:44:39.364Z,99152.06
2023-10-30T05:47:25.801Z,99179.19
2023-10-30T05:50:11.815Z,99175.41
2023-10-30T05:52:57.713Z,99182.22
2023-10-30T05:55:43.918Z,99173.75
2023-10-30T05:58:29.934Z,99182.69
2023-10-30T06:01:15.663Z,99184.66
2023-10-30T06:04:02.202Z,99169.41
2023-10-30T06:06:48.737Z,99175.50
2023-10-30T06:09:36.058Z,99172.75
2023-10-30T06:12:22.006Z,99161.06
2023-10-30T06:15:08.998Z,99174.22
2023-10-30T06:17:55.226Z,99170.00
2023-10-30T06:20:41.560Z,99173.22
2023-10-30T06:23:27.535Z,99162.50
2023-10-30T06:26:17.713Z,99175.09
2023-10-30T06:29:03.635Z,99151.91
2023-10-30T06:31:49.480Z,99166.19
2023-10-30T06:34:35.281Z,99164.50
2023-10-30T06:37:21.175Z,99163.84
2023-10-30T06:40:07.597Z,99151.59
2023-10-30T06:42:53.957Z,99154.78
2023-10-30T06:45:39.898Z,99184.75
2023-10-30T06:48:25.680Z,99187.03
2023-10-30T06:51:11.587Z,99205.94
2023-10-30T06:53:57.448Z,99203.19
2023-10-30T06:56:43.662Z,99214.38
2023-10-30T06:59:29.462Z,99218.63
2023-10-30T07:02:15.547Z,99236.47
2023-10-30T07:05:01.722Z,99214.16
2023-10-30T07:07:47.639Z,99239.69
2023-10-30T07:10:33.643Z,99217.28
2023-10-30T07:13:19.180Z,99214.41
2023-10-30T07:16:06.301Z,99216.81
2023-10-30T07:18:52.383Z,99190.06
2023-10-30T07:21:41.092Z,99213.53
2023-10-30T07:24:28.218Z,99188.31
2023-10-30T07:27:15.942Z,99200.72
2023-10-30T07:30:04.644Z,99215.59
2023-10-30T07:32:51.404Z,99227.34
2023-10-30T07:35:37.086Z,99222.44
2023-10-30T07:38:23.283Z,99235.38
2023-10-30T07:41:11.976Z,99235.28
2023-10-30T07:43:58.551Z,99232.94
2023-10-30T07:46:44.284Z,99241.88
2023-10-30T07:49:30.699Z,99251.09
2023-10-30T07:52:16.290Z,99267.31
2023-10-30T07:55:06.222Z,99268.78
2023-10-30T07:57:51.841Z,99284.00
2023-10-30T08:00:54.942Z,99274.59
2023-10-30T08:03:43.533Z,99253.03
2023-10-30T08:06:29.887Z,99260.63
2023-10-30T08:09:17.418Z,99272.75
2023-10-30T08:12:03.864Z,99265.53
2023-10-30T08:14:49.593Z,99266.16
2023-10-30T08:17:35.881Z,99283.09
2023-10-30T08:20:21.954Z,99272.81
2023-10-30T08:23:07.988Z,99267.91
2023-10-30T08:25:54.108Z,99272.00
2023-10-30T08:28:45.943Z,99244.56
2023-10-30T08:31:32.299Z,99253.50
2023-10-30T08:34:18.756Z,99269.59
2023-10-30T08:37:04.672Z,99275.81
2023-10-30T08:39:50.772Z,99286.56
2023-10-30T08:42:36.711Z,99283.47
2023-10-30T08:45:23.575Z,99276.09
2023-10-30T08:48:18.656Z,99267.56
2023-10-30T08:51:06.047Z,99291.81
2023-10-30T08:53:52.461Z,99286.50
2023-10-30T08:56:39.901Z,99292.53
2023-10-30T08:59:25.705Z,99278.25
2023-10-30T09:02:11.658Z,99283.03
2023-10-30T09:04:57.303Z,99298.13
2023-10-30T09:07:44.347Z,99309.69
2023-10-30T09:10:33.646Z,99312.25
2023-10-30T09:13:19.581Z,99289.25
2023-10-30T09:16:06.357Z,99319.47
2023-10-30T09:18:53.969Z,99331.56
2023-10-30T09:21:39.752Z,99340.28
2023-10-30T09:24:27.869Z,99324.53
2023-10-30T09:27:13.719Z,99354.13
2023-10-30T09:29:59.948Z,99356.72
2023-10-30T09:32:46.272Z,99356.53
2023-10-30T09:35:33.336Z,99355.38
2023-10-30T09:38:19.301Z,99377.97
2023-10-30T09:41:08.426Z,99367.47
2023-10-30T09:43:55.051Z,99346.28
2023-10-30T09:46:41.821Z,99324.16
2023-10-30T09:49:29.605Z,99344.78
2023-10-30T09:52:16.977Z,99354.66
2023-10-30T09:55:06.267Z,99345.13
2023-10-30T09:57:53.054Z,99358.63
2023-10-30T10:00:39.176Z,99357.03
2023-10-30T10:03:25.573Z,99360.06
2023-10-30T10:06:11.500Z,99340.78
2023-10-30T10:08:57.644Z,99353.38
2023-10-30T10:11:44.237Z,99357.13
2023-10-30T10:14:33.348Z,99360.31
2023-10-30T10:17:19.302Z,99358.91
2023-10-30T10:20:05.634Z,99356.16
2023-10-30T10:22:51.241Z,99335.69
2023-10-30T10:25:37.052Z,99331.88
2023-10-30T10:28:27.001Z,99354.47
2023-10-30T10:31:13.071Z,99340.31
2023-10-30T10:33:59.198Z,99348.44
2023-10-30T10:36:47.344Z,99330.41
2023-10-30T10:39:53.326Z,99339.97
2023-10-30T10:42:40.986Z,99333.53
2023-10-30T10:45:26.944Z,99340.44
2023-10-30T10:48:13.289Z,99325.28
2023-10-30T10:51:02.021Z,99329.97
2023-10-30T10:53:50.259Z,99329.13
2023-10-30T10:56:38.921Z,99336.66
2023-10-30T10:59:27.809Z,99310.00
2023-10-30T11:02:21.905Z,99300.22
2023-10-30T11:05:09.079Z,99300.84
2023-10-30T11:08:04.799Z,99310.28
2023-10-30T11:10:56.221Z,99302.09
2023-10-30T11:14:12.886Z,99311.53
2023-10-30T11:17:03.157Z,99276.16
2023-10-30T11:19:49.064Z,99288.50
2023-10-30T11:22:42.342Z,99274.50
2023-10-30T11:25:37.101Z,99299.19
2023-10-30T11:28:24.682Z,99287.56
2023-10-30T11:31:10.492Z,99280.81
2023-10-30T11:34:15.324Z,99282.97
2023-10-30T11:37:15.896Z,99298.91
2023-10-30T11:40:07.745Z,99286.91
2023-10-30T11:42:57.852Z,99292.88
2023-10-30T11:45:44.217Z,99296.19
2023-10-30T11:48:31.048Z,99301.59
2023-10-30T11:51:20.263Z,99276.75
2023-10-30T11:54:06.608Z,99295.63
2023-10-30T11:56:53.420Z,99299.41
2023-10-30T11:59:39.812Z,99295.75
2023-10-30T12:02:26.205Z,99309.72
2023-10-30T12:05:12.494Z,99310.59
2023-10-30T12:07:59.909Z,99313.50
2023-10-30T12:10:49.430Z,99309.59
2023-10-30T12:13:36.089Z,99298.09
2023-10-30T12:16:24.472Z,99290.91
2023-10-30T12:19:11.179Z,99302.09
2023-10-30T12:21:57.408Z,99286.19
2023-10-30T12:24:47.654Z,99265.69
2023-10-30T12:27:34.806Z,99272.91
2023-10-30T12:30:21.913Z,99274.56
2023-10-30T12:33:14.321Z,99271.22
2023-10-30T12:36:00.677Z,99272.38
2023-10-30T12:38:49.894Z,99268.16
2023-10-30T12:41:36.381Z,99246.63
2023-10-30T12:44:25.285Z,99272.47
2023-10-30T12:47:12.562Z,99260.41
2023-10-30T12:49:58.488Z,99255.38
2023-10-30T12:52:44.701Z,99228.81
2023-10-30T12:55:30.552Z,99246.34
2023-10-30T12:58:16.749Z,99263.38
2023-10-30T13:03:54.182Z,99263.38
2023-10-30T13:06:40.045Z,99267.00
2023-10-30T13:09:26.090Z,99274.34
2023-10-30T13:12:12.072Z,99276.97
2023-10-30T13:14:58.151Z,99276.44
2023-10-30T13:17:44.265Z,99274.63
2023-10-30T13:20:29.963Z,99286.91
2023-10-30T13:23:15.541Z,99264.78
2023-10-30T13:26:01.512Z,99276.25
2023-10-30T13:28:46.877Z,99280.63
2023-10-30T13:31:32.717Z,99276.53
2023-10-30T13:34:18.354Z,99285.25
2023-10-30T13:37:06.254Z,99274.56
2023-10-30T13:39:52.441Z,99257.44
2023-10-30T13:42:38.722Z,99262.22
2023-10-30T13:45:25.496Z,99253.66
2023-10-30T13:48:11.614Z,99266.91
2023-10-30T13:50:59.262Z,99291.44
2023-10-30T13:53:45.360Z,99272.25
2023-10-30T13:56:32.181Z,99282.09
2023-10-30T13:59:18.492Z,99266.13
2023-10-30T14:02:04.245Z,99259.72
2023-10-30T14:04:53.407Z,99264.53
2023-10-30T14:07:39.399Z,99276.00
2023-10-30T14:10:25.201Z,99256.53
2023-10-30T14:13:10.974Z,99256.38
2023-10-30T14:15:57.464Z,99257.97
2023-10-30T14:18:43.268Z,99259.41
2023-10-30T14:21:29.556Z,99263.81
2023-10-30T14:24:15.606Z,99261.59
2023-10-30T14:27:02.773Z,99269.09
2023-10-30T14:29:49.070Z,99251.84
2023-10-30T14:32:35.004Z,99254.25
2023-10-30T14:35:21.049Z,99237.56
2023-10-30T14:38:06.902Z,99251.06
2023-10-30T14:40:52.877Z,99241.81
2023-10-30T14:43:39.026Z,99229.34
2023-10-30T14:46:26.232Z,99244.47
2023-10-30T14:49:12.601Z,99240.63
2023-10-30T14:52:00.264Z,99225.78
2023-10-30T14:54:46.428Z,99239.97
2023-10-30T14:57:32.450Z,99237.50
2023-10-30T15:00:18.514Z,99236.97
2023-10-30T15:03:04.471Z,99247.97
2023-10-30T15:05:51.469Z,99254.63
2023-10-30T15:08:37.289Z,99260.72
2023-10-30T15:11:23.439Z,99249.78
2023-10-30T15:14:09.766Z,99246.84
2023-10-30T15:16:57.883Z,99270.91
2023-10-30T15:19:43.537Z,99275.50
2023-10-30T15:22:29.728Z,99261.44
2023-10-30T15:25:15.676Z,99268.44
2023-10-30T15:28:02.721Z,99252.41
2023-10-30T15:30:52.374Z,99246.25
2023-10-30T15:33:38.836Z,99268.13
2023-10-30T15:36:28.233Z,99261.41
2023-10-30T15:39:15.972Z,99285.91
2023-10-30T15:42:02.210Z,99280.56
2023-10-30T15:44:48.331Z,99271.63
2023-10-30T15:47:36.265Z,99269.81
2023-10-30T15:50:25.541Z,99277.13
2023-10-30T15:58:48.644Z,99269.28
2023-10-30T16:01:35.124Z,99265.25
2023-10-30T16:04:21.404Z,99252.75
2023-10-30T16:07:08.505Z,99251.75
2023-10-30T16:10:11.925Z,99247.94
2023-10-30T16:13:00.645Z,99251.59
2023-10-30T16:15:49.713Z,99254.13
2023-10-30T16:18:35.873Z,99256.84
2023-10-30T16:21:23.927Z,99251.69
2023-10-30T16:24:11.437Z,99253.75
2023-10-30T16:26:58.197Z,99254.81
2023-10-30T16:29:45.109Z,99247.72
2023-10-30T16:32:30.947Z,99239.00
2023-10-30T16:35:17.015Z,99240.72
2023-10-30T16:38:02.697Z,99226.88
2023-10-30T16:40:48.925Z,99246.34
2023-10-30T16:43:34.949Z,99236.72
2023-10-30T16:46:20.949Z,99247.22
2023-10-30T16:49:06.853Z,99256.03
2023-10-30T16:51:52.920Z,99243.09
2023-10-30T16:54:38.886Z,99254.19
2023-10-30T16:57:24.744Z,99243.56
2023-10-30T17:00:11.230Z,99253.03
2023-10-30T17:02:57.321Z,99255.34
2023-10-30T17:05:43.390Z,99237.69
2023-10-30T17:08:29.400Z,99221.22
2023-10-30T17:11:16.465Z,99227.94
2023-10-30T17:14:02.448Z,99235.50
2023-10-30T17:16:48.647Z,99234.94
2023-10-30T17:19:34.699Z,99222.78
2023-10-30T17:22:20.719Z,99245.75
2023-10-30T17:25:07.306Z,99223.31
2023-10-30T17:27:53.238Z,99232.47
2023-10-30T17:30:39.877Z,99222.41
2023-10-30T17:33:26.324Z,99224.47
2023-10-30T17:36:12.360Z,99217.59
2023-10-30T17:38:58.139Z,99214.38
2023-10-30T17:41:44.318Z,99217.00
2023-10-30T17:44:30.199Z,99200.50
2023-10-30T17:47:16.440Z,99213.00
2023-10-30T17:50:02.513Z,99215.75
2023-10-30T17:52:49.713Z,99201.16
2023-10-30T17:55:35.810Z,99211.59
2023-10-30T17:58:22.152Z,99208.72
2023-10-30T18:01:15.586Z,99193.97
2023-10-30T18:04:01.570Z,99171.31
2023-10-30T18:06:47.411Z,99165.69
2023-10-30T18:09:33.214Z,99179.00
2023-10-30T18:12:18.741Z,99160.00
2023-10-30T18:15:05.302Z,99151.06
2023-10-30T18:17:51.449Z,99163.44
2023-10-30T18:20:44.362Z,99170.19
2023-10-30T18:23:32.635Z,99181.16
2023-10-30T18:26:24.219Z,99170.97
2023-10-30T18:29:13.614Z,99167.75
2023-10-30T18:32:04.119Z,99163.09
2023-10-30T18:34:49.853Z,99156.47
2023-10-30T18:37:35.557Z,99145.38
2023-10-30T18:40:21.267Z,99141.19
2023-10-30T18:43:07.478Z,99140.38
2023-10-30T18:45:53.616Z,99135.56
2023-10-30T18:48:39.656Z,99144.38
2023-10-30T18:51:26.644Z,99141.66
2023-10-30T18:54:13.123Z,99141.44
2023-10-30T18:56:59.494Z,99137.44
2023-10-30T18:59:45.503Z,99149.47
2023-10-30T19:02:31.475Z,99134.88
2023-10-30T19:05:17.606Z,99129.84
2023-10-30T19:08:04.686Z,99120.13
2023-10-30T19:10:51.134Z,99120.03
2023-10-30T19:13:37.267Z,99092.50
2023-10-30T19:16:23.337Z,99106.78
2023-10-30T19:19:09.030Z,99103.81
2023-10-30T19:21:54.674Z,99084.38
2023-10-30T19:24:40.331Z,99088.16
2023-10-30T19:27:26.260Z,99099.97
2023-10-30T19:30:12.658Z,99088.84
2023-10-30T19:32:59.278Z,99086.44
2023-10-30T19:35:44.794Z,99082.09
2023-10-30T19:38:32.194Z,99076.59
2023-10-30T19:41:17.816Z,99071.47
2023-10-30T19:44:04.090Z,99078.91
2023-10-30T19:46:50.359Z,99065.31
2023-10-30T19:49:36.512Z,99064.16
2023-10-30T19:52:21.931Z,99067.72
2023-10-30T19:55:09.061Z,99061.28
2023-10-30T19:57:55.042Z,99049.84
2023-10-30T20:00:40.735Z,99064.50
2023-10-30T20:03:26.299Z,99052.97
2023-10-30T20:06:12.160Z,99042.56
2023-10-30T20:08:57.545Z,99020.75
2023-10-30T20:11:44.073Z,99020.28
2023-10-30T20:14:29.964Z,99018.78
2023-10-30T20:17:16.055Z,99010.09
2023-10-30T20:20:01.873Z,99011.59
2023-10-30T20:22:48.228Z,99006.88
2023-10-30T20:25:33.875Z,98987.94
2023-10-30T20:28:19.970Z,98964.41
2023-10-30T20:31:05.953Z,98974.66
2023-10-30T20:33:51.927Z,98970.69
2023-10-30T20:36:38.440Z,98950.56
2023-10-30T20:39:26.159Z,98948.75
2023-10-30T20:42:11.881Z,98940.50
2023-10-30T20:44:58.191Z,98934.91
2023-10-30T20:47:44.462Z,98917.31
2023-10-30T20:50:30.579Z,98920.97
2023-10-30T20:53:17.741Z,98907.25
2023-10-30T20:56:04.530Z,98900.09
2023-10-30T20:58:50.440Z,98881.34
2023-10-30T21:01:36.700Z,98907.03
2023-10-30T21:04:22.866Z,98900.31
2023-10-30T21:07:08.803Z,98903.06
2023-10-30T21:09:55.232Z,98902.44
2023-10-30T21:12:41.448Z,98886.94
2023-10-30T21:15:26.971Z,98907.22
2023-10-30T21:18:13.530Z,98887.03
2023-10-30T21:21:00.042Z,98885.09
2023-10-30T21:23:46.209Z,98888.28
2023-10-30T21:26:32.500Z,98871.28
2023-10-30T21:29:20.132Z,98862.25
2023-10-30T21:32:06.668Z,98859.50
2023-10-30T21:34:52.697Z,98845.69
2023-10-30T21:37:38.996Z,98848.44
2023-10-30T21:40:24.732Z,98840.78
2023-10-30T21:43:10.359Z,98822.63
2023-10-30T21:45:56.619Z,98835.31
2023-10-30T21:48:43.753Z,98817.50
2023-10-30T21:51:30.098Z,98806.56
2023-10-30T21:54:16.058Z,98813.75
2023-10-30T21:57:02.299Z,98801.66
2023-10-30T21:59:48.223Z,98812.84
2023-10-30T22:02:34.797Z,98793.34
2023-10-30T22:05:22.163Z,98785.00
2023-10-30T22:08:09.628Z,98772.00
2023-10-30T22:10:55.309Z,98788.78
2023-10-30T22:13:41.693Z,98785.66
2023-10-30T22:16:27.535Z,98751.69
2023-10-30T22:19:13.493Z,98771.19
2023-10-30T22:21:59.239Z,98780.50
2023-10-30T22:24:45.528Z,98783.34
2023-10-30T22:27:32.173Z,98788.25
2023-10-30T22:30:25.826Z,98776.59
2023-10-30T22:33:14.528Z,98751.00
2023-10-30T22:36:03.276Z,98744.81
2023-10-30T22:38:49.258Z,98727.22
2023-10-30T22:41:34.998Z,98710.19
2023-10-30T22:44:21.124Z,98712.66
2023-10-30T22:47:07.687Z,98701.41
2023-10-30T22:49:53.743Z,98722.50
2023-10-30T22:52:40.386Z,98715.94
2023-10-30T22:55:29.229Z,98680.34
2023-10-30T22:58:15.573Z,98693.22
2023-10-30T23:01:01.440Z,98686.22
2023-10-30T23:03:48.964Z,98684.38
2023-10-30T23:06:34.835Z,98688.00
2023-10-30T23:09:21.934Z,98668.97
2023-10-30T23:12:07.802Z,98672.94
2023-10-30T23:14:53.989Z,98654.44
2023-10-30T23:17:40.028Z,98675.16
2023-10-30T23:20:27.766Z,98671.00
2023-10-30T23:23:13.463Z,98666.22
2023-10-30T23:26:00.782Z,98654.09
2023-10-30T23:28:46.823Z,98645.00
2023-10-30T23:31:33.284Z,98622.25
2023-10-30T23:34:19.403Z,98628.72
2023-10-30T23:37:05.832Z,98631.53
2023-10-30T23:39:52.210Z,98599.34
2023-10-30T23:42:38.185Z,98627.19
2023-10-30T23:45:25.014Z,98605.78
2023-10-30T23:48:14.002Z,98587.22
2023-10-30T23:51:00.263Z,98573.41
2023-10-30T23:53:46.016Z,98573.88
2023-10-30T23:56:31.851Z,98560.41
2023-10-30T23:59:17.834Z,98563.72
